Time;durP1;ratioP1;P1;durP2;ratioP2;P2;SDS_P1;SDS_P2;PMS_P1;PMS_P2;Temp;Humidity;BMP_temperature;BMP_pressure;BME280_temperature;BME280_humidity;BME280_pressure;Samples;Min_cycle;Max_cycle;Signal;HPM_P1;HPM_P2
2022/07/01 00:02:20;;;;;;;0.65;0.17;;;16.70;99.90;;;;;;5030304;28;20504;-86
2022/07/01 00:04:45;;;;;;;0.47;0.10;;;16.70;99.90;;;;;;5013913;28;20018;-86
2022/07/01 00:07:11;;;;;;;0.63;0.17;;;16.60;99.90;;;;;;5015106;28;20392;-87
2022/07/01 00:09:37;;;;;;;0.50;0.20;;;16.30;99.90;;;;;;4967571;23;1105290;-88
2022/07/01 00:12:03;;;;;;;0.50;0.20;;;16.20;99.90;;;;;;4990739;28;20038;-87
2022/07/01 00:14:30;;;;;;;0.95;0.20;;;16.10;99.90;;;;;;4995120;28;20026;-88
2022/07/01 00:16:55;;;;;;;0.35;0.10;;;16.20;99.90;;;;;;5012745;28;20022;-88
2022/07/01 00:19:21;;;;;;;2.30;0.25;;;16.10;99.90;;;;;;4998203;28;20055;-87
2022/07/01 00:21:47;;;;;;;0.22;0.10;;;16.00;99.90;;;;;;5013769;28;20026;-88
2022/07/01 00:24:12;;;;;;;1.70;0.10;;;16.20;99.90;;;;;;4996234;28;20080;-88
2022/07/01 00:26:38;;;;;;;0.32;0.13;;;16.10;99.90;;;;;;4995275;28;20388;-87
2022/07/01 00:29:04;;;;;;;0.35;0.10;;;16.10;99.90;;;;;;4993586;28;20109;-88
2022/07/01 00:31:30;;;;;;;0.57;0.10;;;16.10;99.90;;;;;;4995674;28;20026;-88
2022/07/01 00:33:55;;;;;;;1.65;0.30;;;16.20;99.90;;;;;;5012813;28;20026;-88
2022/07/01 00:36:21;;;;;;;0.22;0.03;;;16.20;99.90;;;;;;5012289;28;20029;-88
2022/07/01 00:38:47;;;;;;;0.43;0.10;;;16.00;99.90;;;;;;4994972;28;20025;-88
2022/07/01 00:41:12;;;;;;;1.30;0.10;;;15.90;99.90;;;;;;5008020;28;20018;-87
2022/07/01 00:43:39;;;;;;;0.17;0.00;;;15.90;99.90;;;;;;4995485;28;20025;-88
2022/07/01 00:46:05;;;;;;;0.10;0.10;;;15.80;99.90;;;;;;5011099;28;20347;-89
2022/07/01 00:48:34;;;;;;;0.43;0.08;;;15.80;99.90;;;;;;5012528;28;20056;-87
2022/07/01 00:51:00;;;;;;;0.30;0.20;;;15.80;99.90;;;;;;4992726;28;20025;-89
2022/07/01 00:53:27;;;;;;;0.28;0.10;;;15.90;99.90;;;;;;5008486;28;20030;-88
2022/07/01 00:55:53;;;;;;;0.60;0.08;;;15.90;99.90;;;;;;4989140;28;20094;-88
2022/07/01 00:58:18;;;;;;;0.32;0.10;;;15.90;99.90;;;;;;5008940;28;20097;-88
2022/07/01 01:00:44;;;;;;;0.30;0.00;;;16.00;99.90;;;;;;5012809;28;20477;-89
2022/07/01 01:03:11;;;;;;;0.80;0.10;;;16.00;99.90;;;;;;4996468;28;20393;-88
2022/07/01 01:05:38;;;;;;;0.20;0.10;;;16.30;99.90;;;;;;4993674;28;20475;-88
2022/07/01 01:08:05;;;;;;;0.55;0.10;;;16.20;99.90;;;;;;4993621;28;20053;-88
2022/07/01 01:10:31;;;;;;;0.25;0.00;;;16.20;99.90;;;;;;4994173;28;20509;-88
2022/07/01 01:12:57;;;;;;;0.35;0.10;;;16.20;99.90;;;;;;4994101;28;20030;-88
2022/07/01 01:15:23;;;;;;;0.00;0.00;;;16.10;99.90;;;;;;4994211;28;20026;-88
2022/07/01 01:17:49;;;;;;;0.00;0.00;;;16.10;99.90;;;;;;4993634;28;20101;-88
2022/07/01 01:20:19;;;;;;;0.20;0.00;;;16.10;99.90;;;;;;4993705;28;20634;-88
2022/07/01 01:22:47;;;;;;;0.10;0.00;;;16.20;99.90;;;;;;4991266;28;20027;-88
2022/07/01 01:25:12;;;;;;;0.10;0.10;;;16.20;99.90;;;;;;5007301;28;20105;-88
2022/07/01 01:27:38;;;;;;;0.05;0.00;;;16.20;99.90;;;;;;5009160;28;20054;-88
2022/07/01 01:30:08;;;;;;;0.00;0.00;;;16.10;99.90;;;;;;5013348;28;20032;-87
2022/07/01 01:32:35;;;;;;;0.00;0.00;;;16.00;99.90;;;;;;4990805;28;20096;-87
2022/07/01 01:35:02;;;;;;;0.30;0.00;;;15.90;99.90;;;;;;4994948;28;20033;-87
2022/07/01 01:37:28;;;;;;;0.60;0.10;;;15.90;99.90;;;;;;4997159;28;20021;-88
2022/07/01 01:39:54;;;;;;;1.45;0.10;;;15.90;99.90;;;;;;4993746;28;20110;-87
2022/07/01 01:42:20;;;;;;;0.30;0.10;;;15.90;99.90;;;;;;4994542;28;20022;-87
2022/07/01 01:44:45;;;;;;;0.20;0.05;;;15.90;99.90;;;;;;4992383;28;20030;-87
2022/07/01 01:47:11;;;;;;;0.40;0.10;;;15.70;99.90;;;;;;4994443;28;20025;-87
2022/07/01 01:49:37;;;;;;;0.17;0.00;;;15.60;99.90;;;;;;4998863;28;20052;-87
2022/07/01 01:52:03;;;;;;;0.88;0.20;;;15.30;99.90;;;;;;4992585;28;20405;-86
2022/07/01 01:54:29;;;;;;;0.28;0.10;;;15.40;99.90;;;;;;5005304;28;20087;-86
2022/07/01 01:56:55;;;;;;;1.30;0.10;;;15.10;99.90;;;;;;4992001;28;20444;-87
2022/07/01 01:59:20;;;;;;;0.85;0.10;;;15.30;99.90;;;;;;5014825;28;20109;-86
2022/07/01 02:01:46;;;;;;;0.47;0.10;;;15.20;99.90;;;;;;5000294;28;20113;-87
2022/07/01 02:04:11;;;;;;;1.00;0.13;;;15.10;99.90;;;;;;5018176;28;20446;-86
2022/07/01 02:06:37;;;;;;;0.47;0.15;;;15.00;99.90;;;;;;4996122;28;20022;-87
2022/07/01 02:09:03;;;;;;;0.13;0.10;;;15.00;99.90;;;;;;5014842;28;20065;-86
2022/07/01 02:11:29;;;;;;;0.45;0.10;;;15.20;99.90;;;;;;5013951;28;20027;-86
2022/07/01 02:13:54;;;;;;;0.20;0.10;;;14.90;99.90;;;;;;5014158;28;20041;-86
2022/07/01 02:16:20;;;;;;;1.30;0.22;;;15.00;99.90;;;;;;5016152;28;20033;-86
2022/07/01 02:18:46;;;;;;;0.45;0.10;;;15.00;99.90;;;;;;4995215;28;20026;-86
2022/07/01 02:21:11;;;;;;;0.13;0.10;;;15.00;99.90;;;;;;5015597;28;20026;-86
2022/07/01 02:23:37;;;;;;;0.50;0.20;;;14.90;99.90;;;;;;5017340;28;20025;-88
2022/07/01 02:26:03;;;;;;;0.60;0.20;;;14.90;99.90;;;;;;4997481;28;20069;-86
2022/07/01 02:28:29;;;;;;;0.85;0.13;;;14.80;99.90;;;;;;4994393;28;20088;-87
2022/07/01 02:30:54;;;;;;;0.30;0.10;;;14.80;99.90;;;;;;5015156;28;20040;-86
2022/07/01 02:33:21;;;;;;;0.85;0.10;;;14.90;99.90;;;;;;4995073;28;20052;-87
2022/07/01 02:35:47;;;;;;;0.28;0.10;;;14.80;99.90;;;;;;5015315;28;20101;-87
2022/07/01 02:38:12;;;;;;;0.20;0.20;;;14.70;99.90;;;;;;4994812;28;20460;-87
2022/07/01 02:40:39;;;;;;;0.10;0.10;;;14.70;99.90;;;;;;4997340;28;20014;-87
2022/07/01 02:43:06;;;;;;;0.60;0.13;;;14.70;99.90;;;;;;5016423;28;20084;-87
2022/07/01 02:45:31;;;;;;;0.47;0.10;;;14.60;99.90;;;;;;4996371;28;20428;-85
2022/07/01 02:47:57;;;;;;;0.17;0.10;;;14.60;99.90;;;;;;4997153;28;20045;-87
2022/07/01 02:50:23;;;;;;;0.45;0.17;;;14.60;99.90;;;;;;5017261;28;20036;-86
2022/07/01 02:52:48;;;;;;;0.30;0.10;;;14.60;99.90;;;;;;4996461;28;20074;-87
2022/07/01 02:55:14;;;;;;;0.22;0.10;;;14.60;99.90;;;;;;5007277;28;20029;-86
2022/07/01 02:57:41;;;;;;;0.30;0.20;;;14.50;99.90;;;;;;5014748;28;20054;-87
2022/07/01 03:00:09;;;;;;;1.23;0.20;;;14.50;99.90;;;;;;4999048;28;20022;-87
2022/07/01 03:02:35;;;;;;;0.40;0.10;;;14.50;99.90;;;;;;4998082;28;20429;-87
2022/07/01 03:05:01;;;;;;;0.60;0.10;;;14.50;99.90;;;;;;5009532;28;20037;-87
2022/07/01 03:07:27;;;;;;;0.68;0.22;;;14.20;99.90;;;;;;4996807;28;20037;-86
2022/07/01 03:09:53;;;;;;;0.70;0.20;;;14.40;99.90;;;;;;4995705;28;20037;-87
2022/07/01 03:12:24;;;;;;;0.82;0.35;;;14.40;99.90;;;;;;4990464;28;20030;-85
2022/07/01 03:15:07;;;;;;;2.05;0.40;;;14.70;99.90;;;;;;4992396;28;20073;-87
2022/07/01 03:17:34;;;;;;;0.90;0.22;;;14.40;99.90;;;;;;5014756;28;20033;-87
2022/07/01 03:20:02;;;;;;;0.50;0.22;;;14.50;99.90;;;;;;4996688;28;20028;-87
2022/07/01 03:22:29;;;;;;;0.55;0.15;;;14.60;99.90;;;;;;4996663;28;20029;-86
2022/07/01 03:24:57;;;;;;;0.55;0.20;;;14.70;99.90;;;;;;4995891;28;20029;-87
2022/07/01 03:27:24;;;;;;;1.48;0.45;;;14.70;99.90;;;;;;4999153;28;20021;-87
2022/07/01 03:29:50;;;;;;;1.10;0.25;;;14.70;99.90;;;;;;4997049;28;20026;-87
2022/07/01 03:32:16;;;;;;;1.80;0.30;;;14.70;99.90;;;;;;4998502;28;20030;-87
2022/07/01 03:34:47;;;;;;;0.65;0.15;;;14.70;99.90;;;;;;4991150;28;20398;-87
2022/07/01 03:37:14;;;;;;;1.92;0.38;;;14.80;99.90;;;;;;4986612;28;20077;-87
2022/07/01 03:39:40;;;;;;;0.20;0.10;;;14.80;99.90;;;;;;4995933;28;20072;-87
2022/07/01 03:42:07;;;;;;;1.48;0.20;;;14.70;99.90;;;;;;5009769;28;20026;-87
2022/07/01 03:44:34;;;;;;;0.82;0.20;;;14.70;99.90;;;;;;5012625;28;20421;-87
2022/07/01 03:47:00;;;;;;;0.57;0.20;;;14.70;99.90;;;;;;4992152;28;20508;-87
2022/07/01 03:49:26;;;;;;;1.85;0.15;;;14.80;99.90;;;;;;5005425;28;20022;-88
2022/07/01 03:51:52;;;;;;;0.73;0.15;;;15.40;99.90;;;;;;4997179;28;20499;-87
2022/07/01 03:54:30;;;;;;;0.63;0.17;;;14.70;99.90;;;;;;4986502;28;20030;-88
2022/07/01 03:57:01;;;;;;;0.80;0.10;;;15.30;99.90;;;;;;4989100;28;20090;-87
2022/07/01 03:59:28;;;;;;;0.98;0.17;;;15.10;99.90;;;;;;4994011;28;20022;-87
2022/07/01 04:01:58;;;;;;;0.40;0.20;;;14.60;99.90;;;;;;4993105;28;20041;-87
2022/07/01 04:04:24;;;;;;;0.45;0.22;;;14.70;99.90;;;;;;5007875;28;20018;-87
2022/07/01 04:06:52;;;;;;;0.30;0.10;;;14.70;99.90;;;;;;4996610;28;20037;-88
2022/07/01 04:09:18;;;;;;;0.47;0.10;;;14.70;99.90;;;;;;4990829;28;20029;-87
2022/07/01 04:11:45;;;;;;;0.60;0.10;;;14.50;99.90;;;;;;4985871;28;20042;-88
2022/07/01 04:14:12;;;;;;;1.05;0.10;;;14.70;99.90;;;;;;4994385;28;20125;-87
2022/07/01 04:16:38;;;;;;;0.20;0.10;;;14.60;99.90;;;;;;5006599;28;20105;-87
2022/07/01 04:19:04;;;;;;;0.40;0.20;;;14.60;99.90;;;;;;4994636;28;20139;-87
2022/07/01 04:24:15;;;;;;;0.13;0.10;;;14.60;99.90;;;;;;5007029;28;20075;-88
2022/07/01 04:26:42;;;;;;;0.28;0.10;;;14.60;99.90;;;;;;5015945;28;20116;-87
2022/07/01 04:29:08;;;;;;;0.40;0.10;;;14.60;99.90;;;;;;4998863;28;20124;-86
2022/07/01 04:31:37;;;;;;;1.85;0.17;;;14.60;99.90;;;;;;5004958;28;20057;-87
2022/07/01 04:34:04;;;;;;;1.10;0.10;;;14.60;99.90;;;;;;4980093;28;20317;-87
2022/07/01 04:36:30;;;;;;;0.90;0.10;;;14.60;99.90;;;;;;5002987;28;20049;-88
2022/07/01 04:38:56;;;;;;;0.20;0.00;;;14.70;99.90;;;;;;4980291;28;20182;-88
2022/07/01 04:44:06;;;;;;;0.45;0.10;;;14.60;99.90;;;;;;5009802;28;20045;-88
2022/07/01 04:46:32;;;;;;;0.57;0.00;;;14.70;99.90;;;;;;4986816;28;20034;-87
2022/07/01 04:48:58;;;;;;;0.40;0.28;;;14.70;99.90;;;;;;4990655;28;20069;-88
2022/07/01 04:51:24;;;;;;;0.10;0.00;;;14.70;99.90;;;;;;4992917;28;20163;-87
2022/07/01 04:53:49;;;;;;;0.30;0.10;;;14.70;99.90;;;;;;4984234;28;20667;-86
2022/07/01 04:56:15;;;;;;;1.55;0.30;;;14.70;99.90;;;;;;5005768;28;20033;-88
2022/07/01 04:58:41;;;;;;;0.20;0.10;;;14.70;99.90;;;;;;5009617;28;20030;-88
2022/07/01 05:01:06;;;;;;;0.32;0.10;;;14.80;99.90;;;;;;4993706;28;20171;-88
2022/07/01 05:03:32;;;;;;;0.20;0.10;;;14.70;99.90;;;;;;4990316;28;20552;-88
2022/07/01 05:05:58;;;;;;;0.45;0.22;;;14.80;99.90;;;;;;5005950;28;20038;-88
2022/07/01 05:08:24;;;;;;;0.47;0.10;;;15.00;99.90;;;;;;4989843;28;20153;-87
2022/07/01 05:10:49;;;;;;;0.38;0.10;;;15.10;99.90;;;;;;4986651;28;20121;-86
2022/07/01 05:13:15;;;;;;;0.40;0.13;;;15.00;99.90;;;;;;5007509;28;20041;-88
2022/07/01 05:15:41;;;;;;;0.55;0.20;;;15.00;99.90;;;;;;4984474;28;20034;-89
2022/07/01 05:23:35;;;;;;;0.10;0.03;;;15.00;99.90;;;;;;5009478;28;20025;-88
2022/07/01 05:26:03;;;;;;;0.35;0.10;;;14.90;99.90;;;;;;5007238;28;20042;-88
2022/07/01 05:28:29;;;;;;;0.50;0.10;;;14.90;99.90;;;;;;4986688;28;20022;-89
2022/07/01 05:30:55;;;;;;;0.25;0.10;;;14.80;99.90;;;;;;4986064;28;20029;-86
2022/07/01 05:33:21;;;;;;;0.43;0.10;;;14.80;99.90;;;;;;5002716;28;20029;-88
2022/07/01 05:35:47;;;;;;;0.40;0.10;;;15.00;99.90;;;;;;5004661;28;20069;-89
2022/07/01 05:38:13;;;;;;;0.08;0.08;;;14.80;99.90;;;;;;5004049;28;20216;-88
2022/07/01 05:40:39;;;;;;;0.95;0.32;;;14.80;99.90;;;;;;4992741;28;20646;-88
2022/07/01 05:43:05;;;;;;;0.38;0.10;;;14.90;99.90;;;;;;5013360;28;20049;-88
2022/07/01 05:45:30;;;;;;;0.40;0.10;;;14.70;99.90;;;;;;5008592;28;20027;-88
2022/07/01 05:47:56;;;;;;;0.20;0.10;;;14.80;99.90;;;;;;4989567;28;20379;-89
2022/07/01 05:50:23;;;;;;;0.20;0.10;;;14.80;99.90;;;;;;4991507;28;20482;-88
2022/07/01 05:52:49;;;;;;;0.22;0.10;;;14.80;99.90;;;;;;4990452;28;20061;-89
2022/07/01 05:55:14;;;;;;;0.47;0.13;;;14.70;99.90;;;;;;4990501;28;20123;-89
2022/07/01 05:57:41;;;;;;;1.13;0.30;;;15.10;99.90;;;;;;4995162;28;20026;-87
2022/07/01 06:00:09;;;;;;;0.85;0.20;;;14.80;99.90;;;;;;5011074;28;20030;-87
2022/07/01 06:02:35;;;;;;;0.88;0.22;;;14.80;99.90;;;;;;4995148;28;20026;-88
2022/07/01 06:05:02;;;;;;;0.75;0.28;;;14.80;99.90;;;;;;4990248;28;20029;-87
2022/07/01 06:07:28;;;;;;;1.35;0.20;;;14.60;99.90;;;;;;4995165;28;20058;-88
2022/07/01 06:09:54;;;;;;;1.58;0.30;;;14.80;99.90;;;;;;4988961;28;20072;-88
2022/07/01 06:12:20;;;;;;;1.10;0.30;;;14.80;99.90;;;;;;4995334;28;20041;-88
2022/07/01 06:14:46;;;;;;;1.15;0.32;;;14.80;99.90;;;;;;5013242;28;20026;-87
2022/07/01 06:17:13;;;;;;;1.02;0.22;;;15.20;99.90;;;;;;5002608;28;20038;-87
2022/07/01 06:19:39;;;;;;;1.02;0.30;;;14.80;99.90;;;;;;4993908;28;20052;-87
2022/07/01 06:22:05;;;;;;;1.25;0.40;;;14.80;99.90;;;;;;4987113;28;20025;-87
2022/07/01 06:24:31;;;;;;;2.10;0.98;;;14.80;99.90;;;;;;4997767;28;20057;-87
2022/07/01 06:26:57;;;;;;;0.70;0.20;;;15.00;99.90;;;;;;5011047;28;20062;-87
2022/07/01 06:29:22;;;;;;;0.68;0.32;;;14.70;99.90;;;;;;5004826;28;20026;-86
2022/07/01 06:31:48;;;;;;;0.77;0.30;;;14.80;99.90;;;;;;4994692;28;20151;-85
2022/07/01 06:34:13;;;;;;;0.47;0.20;;;14.80;99.90;;;;;;4994341;28;20569;-87
2022/07/01 06:36:39;;;;;;;1.30;0.30;;;14.80;99.90;;;;;;4993803;28;20033;-89
2022/07/01 06:39:05;;;;;;;0.95;0.30;;;14.90;99.90;;;;;;4998724;28;20030;-89
2022/07/01 06:41:31;;;;;;;1.48;0.52;;;14.90;99.90;;;;;;4995835;28;20022;-89
2022/07/01 06:43:58;;;;;;;1.13;0.30;;;15.10;99.90;;;;;;4996167;28;20041;-89
2022/07/01 06:46:25;;;;;;;1.05;0.22;;;15.20;99.90;;;;;;4987575;28;20505;-89
2022/07/01 06:48:50;;;;;;;0.60;0.30;;;15.10;99.90;;;;;;4985135;28;20034;-91
2022/07/01 06:51:16;;;;;;;1.15;0.40;;;15.10;99.90;;;;;;5003680;28;20022;-90
2022/07/01 06:53:44;;;;;;;0.63;0.20;;;14.80;99.90;;;;;;5021554;23;20442;-88
2022/07/01 06:56:11;;;;;;;0.85;0.25;;;15.00;99.90;;;;;;4995164;28;20026;-86
2022/07/01 06:58:37;;;;;;;1.48;0.30;;;14.90;99.90;;;;;;5018479;28;20018;-86
2022/07/01 07:01:04;;;;;;;0.77;0.20;;;14.90;99.90;;;;;;5011201;28;20110;-87
2022/07/01 07:03:32;;;;;;;0.40;0.10;;;14.90;99.90;;;;;;4994016;28;20410;-86
2022/07/01 07:06:01;;;;;;;0.68;0.25;;;14.90;99.90;;;;;;4987791;28;20018;-87
2022/07/01 07:08:28;;;;;;;0.75;0.20;;;14.90;99.90;;;;;;5004638;28;20577;-87
2022/07/01 07:10:53;;;;;;;1.52;0.20;;;14.90;99.90;;;;;;4985148;28;20084;-87
2022/07/01 07:13:19;;;;;;;1.38;0.10;;;14.90;99.90;;;;;;5006020;28;20034;-87
2022/07/01 07:15:45;;;;;;;0.40;0.10;;;15.00;99.90;;;;;;4989575;28;20101;-88
2022/07/01 07:18:10;;;;;;;0.50;0.20;;;15.20;99.90;;;;;;5008700;28;20451;-87
2022/07/01 07:20:36;;;;;;;0.35;0.10;;;15.00;99.90;;;;;;4994788;28;20494;-88
2022/07/01 07:23:02;;;;;;;1.58;0.20;;;15.00;99.90;;;;;;5001813;28;20030;-88
2022/07/01 07:25:31;;;;;;;0.52;0.13;;;15.00;99.90;;;;;;4996406;28;20018;-88
2022/07/01 07:27:57;;;;;;;0.70;0.22;;;15.10;99.90;;;;;;5014135;28;20096;-87
2022/07/01 07:30:23;;;;;;;0.88;0.10;;;15.00;99.90;;;;;;5005413;28;20093;-88
2022/07/01 07:32:49;;;;;;;0.22;0.10;;;15.00;99.90;;;;;;5014267;28;20446;-87
2022/07/01 07:35:14;;;;;;;0.55;0.20;;;15.10;99.90;;;;;;5013202;28;20049;-88
2022/07/01 07:37:40;;;;;;;0.70;0.17;;;15.10;99.90;;;;;;5012253;28;20113;-88
2022/07/01 07:40:13;;;;;;;0.75;0.20;;;15.00;99.90;;;;;;5013238;28;20018;-88
2022/07/01 07:42:40;;;;;;;0.45;0.10;;;15.10;99.90;;;;;;5012753;28;20037;-87
2022/07/01 07:45:14;;;;;;;0.25;0.10;;;15.20;99.90;;;;;;4991832;28;20037;-87
2022/07/01 07:47:45;;;;;;;0.50;0.20;;;15.30;99.90;;;;;;4993043;28;20561;-87
2022/07/01 07:50:12;;;;;;;0.93;0.17;;;15.30;99.90;;;;;;4993402;28;20062;-87
2022/07/01 07:52:39;;;;;;;0.50;0.10;;;15.20;99.90;;;;;;4985983;28;20061;-87
2022/07/01 07:55:07;;;;;;;0.22;0.10;;;15.20;99.90;;;;;;4992665;28;20049;-88
2022/07/01 07:57:35;;;;;;;0.20;0.10;;;15.30;99.90;;;;;;5009869;28;20076;-87
2022/07/01 08:00:00;;;;;;;0.85;0.17;;;15.30;99.90;;;;;;5005188;28;20022;-88
2022/07/01 08:02:26;;;;;;;0.80;0.20;;;15.30;99.90;;;;;;4994024;28;20018;-88
2022/07/01 08:04:51;;;;;;;0.68;0.20;;;15.40;99.90;;;;;;5021801;28;20552;-89
2022/07/01 08:07:17;;;;;;;0.55;0.10;;;15.50;99.90;;;;;;4980537;28;20398;-88
2022/07/01 08:09:46;;;;;;;1.00;0.32;;;15.50;99.90;;;;;;5004517;28;20405;-88
2022/07/01 08:12:12;;;;;;;1.08;0.20;;;15.50;99.90;;;;;;4995499;28;20040;-88
2022/07/01 08:14:37;;;;;;;0.73;0.20;;;15.50;99.90;;;;;;4997135;28;20386;-88
2022/07/01 08:17:04;;;;;;;0.20;0.10;;;15.40;99.90;;;;;;5009166;28;20466;-87
2022/07/01 08:19:29;;;;;;;0.73;0.25;;;15.40;99.90;;;;;;5009627;28;20033;-88
2022/07/01 08:21:55;;;;;;;0.50;0.13;;;15.30;99.90;;;;;;4990860;28;20022;-87
2022/07/01 08:24:21;;;;;;;0.77;0.20;;;15.30;99.90;;;;;;4980189;28;20029;-87
2022/07/01 08:26:47;;;;;;;0.98;0.20;;;15.40;99.90;;;;;;5011448;28;20036;-86
2022/07/01 08:29:12;;;;;;;0.20;0.20;;;15.60;99.90;;;;;;5007837;28;20080;-87
2022/07/01 08:31:38;;;;;;;0.70;0.20;;;15.60;99.90;;;;;;5009965;28;20489;-86
2022/07/01 08:34:04;;;;;;;0.63;0.20;;;15.60;99.90;;;;;;5010373;28;20026;-88
2022/07/01 08:36:29;;;;;;;0.70;0.20;;;15.70;99.90;;;;;;4986216;28;20030;-87
2022/07/01 08:38:55;;;;;;;0.88;0.30;;;15.60;99.90;;;;;;5003084;28;20622;-87
2022/07/01 08:41:20;;;;;;;1.48;0.20;;;15.50;99.90;;;;;;4994156;28;20109;-87
2022/07/01 08:43:46;;;;;;;0.45;0.20;;;15.50;99.90;;;;;;5008580;28;20398;-87
2022/07/01 08:46:12;;;;;;;0.30;0.10;;;15.50;99.90;;;;;;5004505;28;20033;-88
2022/07/01 08:48:42;;;;;;;0.50;0.20;;;15.60;99.90;;;;;;4992165;28;20021;-87
2022/07/01 08:51:08;;;;;;;0.40;0.00;;;15.70;99.90;;;;;;4991904;28;20025;-87
2022/07/01 08:53:33;;;;;;;0.80;0.25;;;15.70;99.90;;;;;;5010096;28;20030;-87
2022/07/01 08:58:48;;;;;;;1.00;0.20;;;15.80;99.90;;;;;;5000508;28;20390;-87
2022/07/01 09:01:20;;;;;;;0.15;0.10;;;15.80;99.90;;;;;;4982632;28;20015;-87
2022/07/01 09:03:47;;;;;;;0.50;0.20;;;15.90;99.90;;;;;;5002774;28;20499;-88
2022/07/01 09:06:29;;;;;;;0.95;0.30;;;16.00;99.90;;;;;;4993731;28;20019;-88
2022/07/01 09:09:09;;;;;;;0.50;0.20;;;16.00;99.90;;;;;;4996350;28;20064;-87
2022/07/01 09:11:54;;;;;;;0.98;0.47;;;15.90;99.90;;;;;;5007264;28;20038;-87
2022/07/01 09:14:28;;;;;;;0.75;0.30;;;15.60;99.90;;;;;;4996514;28;20026;-89
2022/07/01 09:17:00;;;;;;;0.85;0.20;;;15.70;99.90;;;;;;5007643;28;20108;-88
2022/07/01 09:19:27;;;;;;;0.63;0.20;;;15.70;99.90;;;;;;5011527;28;20026;-87
2022/07/01 09:22:13;;;;;;;0.88;0.17;;;15.90;99.90;;;;;;4991518;28;20026;-88
2022/07/01 09:24:42;;;;;;;1.52;0.10;;;15.50;99.90;;;;;;4991270;28;20098;-87
2022/07/01 09:27:13;;;;;;;2.20;0.20;;;15.40;99.90;;;;;;5016980;28;20053;-87
2022/07/01 09:29:49;;;;;;;0.38;0.20;;;14.60;99.90;;;;;;4986402;28;20383;-88
2022/07/01 09:32:24;;;;;;;0.50;0.13;;;15.40;99.90;;;;;;5007881;28;20041;-88
2022/07/01 09:34:52;;;;;;;1.13;0.30;;;15.50;99.90;;;;;;4983356;28;20089;-88
2022/07/01 09:37:22;;;;;;;0.75;0.22;;;15.40;99.90;;;;;;5003384;28;20029;-88
2022/07/01 09:39:49;;;;;;;2.70;0.28;;;15.40;99.90;;;;;;4991760;28;20029;-87
2022/07/01 09:42:19;;;;;;;0.65;0.30;;;15.30;99.90;;;;;;5015802;28;20018;-88
2022/07/01 09:45:06;;;;;;;0.90;0.30;;;15.30;99.90;;;;;;4990842;28;20080;-89
2022/07/01 09:47:33;;;;;;;0.85;0.20;;;16.00;99.90;;;;;;4996189;28;20018;-87
2022/07/01 09:49:59;;;;;;;0.73;0.10;;;16.00;99.90;;;;;;4986567;28;20076;-88
2022/07/01 09:52:27;;;;;;;1.42;0.30;;;15.20;99.90;;;;;;4983910;28;20045;-88
2022/07/01 09:54:53;;;;;;;0.30;0.30;;;15.20;99.90;;;;;;5001163;28;20091;-88
2022/07/01 09:57:21;;;;;;;0.70;0.20;;;14.90;99.90;;;;;;4995370;28;20029;-87
2022/07/01 09:59:48;;;;;;;0.40;0.13;;;15.20;99.90;;;;;;5007497;28;20038;-88
2022/07/01 10:02:18;;;;;;;0.88;0.20;;;15.80;99.90;;;;;;5009353;28;20029;-88
2022/07/01 10:04:56;;;;;;;0.50;0.20;;;15.30;99.90;;;;;;4986571;28;20021;-89
2022/07/01 10:07:48;;;;;;;0.80;0.30;;;15.40;99.90;;;;;;4998948;28;20018;-88
2022/07/01 10:10:23;;;;;;;0.60;0.20;;;15.60;99.90;;;;;;4988909;28;20018;-88
2022/07/01 10:13:01;;;;;;;0.82;0.25;;;15.80;99.90;;;;;;5001366;28;20022;-88
2022/07/01 10:15:27;;;;;;;2.10;0.25;;;15.90;99.90;;;;;;5003097;28;20529;-88
2022/07/01 10:17:53;;;;;;;0.20;0.10;;;15.80;99.90;;;;;;5005288;28;20033;-87
2022/07/01 10:20:28;;;;;;;0.82;0.20;;;15.70;99.90;;;;;;4993758;28;20018;-88
2022/07/01 10:23:05;;;;;;;0.52;0.20;;;15.70;99.90;;;;;;5015293;28;20022;-88
2022/07/01 10:25:46;;;;;;;0.93;0.30;;;15.70;99.90;;;;;;5007469;28;20032;-88
2022/07/01 10:28:24;;;;;;;0.80;0.30;;;15.80;99.90;;;;;;5005551;28;20029;-88
2022/07/01 10:30:50;;;;;;;1.42;0.22;;;15.80;99.90;;;;;;4989505;28;20084;-88
2022/07/01 10:33:31;;;;;;;1.00;0.30;;;15.90;99.90;;;;;;5009303;28;20459;-87
2022/07/01 10:36:16;;;;;;;0.50;0.10;;;16.00;99.90;;;;;;4994664;28;20026;-88
2022/07/01 10:39:01;;;;;;;0.52;0.30;;;16.00;99.90;;;;;;4999860;28;20105;-88
2022/07/01 10:41:35;;;;;;;0.88;0.25;;;16.30;99.90;;;;;;5016637;28;20018;-88
2022/07/01 10:44:06;;;;;;;1.00;0.30;;;16.40;99.90;;;;;;5010497;28;20026;-88
2022/07/01 10:46:41;;;;;;;;;;;16.60;99.90;;;;;;5014902;28;20022;-88
2022/07/01 10:49:21;;;;;;;0.60;0.20;;;16.60;99.90;;;;;;4998182;28;19913;-88
2022/07/01 10:51:50;;;;;;;0.55;0.20;;;16.70;99.90;;;;;;5019887;28;20505;-88
2022/07/01 10:54:35;;;;;;;1.13;0.20;;;16.70;99.90;;;;;;4996058;28;20057;-87
2022/07/01 10:57:19;;;;;;;3.53;0.35;;;16.90;99.90;;;;;;4998947;28;20033;-88
2022/07/01 10:59:51;;;;;;;1.40;0.20;;;17.10;99.90;;;;;;5024753;28;20018;-89
2022/07/01 11:02:22;;;;;;;1.23;0.20;;;17.40;99.90;;;;;;5006380;28;20021;-89
2022/07/01 11:04:51;;;;;;;0.38;0.15;;;17.80;99.90;;;;;;5021515;28;20427;-89
2022/07/01 11:07:16;;;;;;;0.65;0.30;;;18.00;99.90;;;;;;5004288;28;20520;-88
2022/07/01 11:09:42;;;;;;;0.57;0.15;;;18.20;99.90;;;;;;5006243;28;20022;-90
2022/07/01 11:12:08;;;;;;;0.20;0.20;;;18.30;99.90;;;;;;5003007;28;20483;-89
2022/07/01 11:14:43;;;;;;;0.45;0.17;;;18.30;99.90;;;;;;5020465;28;20018;-88
2022/07/01 11:17:12;;;;;;;0.63;0.30;;;18.20;99.90;;;;;;4999976;28;20164;-90
2022/07/01 11:19:37;;;;;;;0.43;0.15;;;18.40;99.90;;;;;;4994167;28;20029;-89
2022/07/01 11:22:05;;;;;;;0.80;0.10;;;18.60;99.90;;;;;;4995698;28;20022;-89
2022/07/01 11:24:32;;;;;;;0.60;0.20;;;18.60;99.90;;;;;;5013336;28;20061;-89
2022/07/01 11:27:07;;;;;;;0.43;0.20;;;18.80;99.90;;;;;;5019062;28;20072;-89
2022/07/01 11:29:34;;;;;;;0.25;0.20;;;19.10;99.90;;;;;;5022283;28;20065;-89
2022/07/01 11:31:59;;;;;;;1.10;0.30;;;19.40;99.90;;;;;;4999464;28;20149;-89
2022/07/01 11:34:29;;;;;;;0.22;0.20;;;19.50;99.90;;;;;;5002565;28;20058;-89
2022/07/01 11:39:43;;;;;;;1.75;0.13;;;18.90;99.90;;;;;;5013980;28;20116;-90
2022/07/01 11:42:11;;;;;;;1.27;0.47;;;18.70;99.90;;;;;;4997192;28;20493;-89
2022/07/01 11:44:40;;;;;;;1.08;0.40;;;18.30;99.90;;;;;;5016160;28;20040;-89
2022/07/01 11:47:09;;;;;;;1.30;0.40;;;18.50;99.90;;;;;;5014621;28;20028;-89
2022/07/01 11:49:46;;;;;;;0.47;0.22;;;18.00;99.90;;;;;;4993250;28;20029;-89
2022/07/01 11:52:13;;;;;;;0.10;0.10;;;17.80;99.90;;;;;;5004471;28;20022;-90
2022/07/01 11:54:44;;;;;;;0.38;0.20;;;17.70;99.90;;;;;;5013334;28;20026;-89
2022/07/01 11:57:16;;;;;;;2.17;0.30;;;17.60;99.90;;;;;;4996205;28;20101;-89
2022/07/01 11:59:43;;;;;;;0.75;0.20;;;17.50;99.90;;;;;;4995238;28;20061;-89
2022/07/01 12:02:11;;;;;;;1.05;0.25;;;17.40;99.90;;;;;;5001229;28;20479;-87
2022/07/01 12:04:43;;;;;;;1.17;0.35;;;17.50;99.90;;;;;;5013415;28;20371;-87
2022/07/01 12:07:10;;;;;;;0.32;0.20;;;17.60;99.90;;;;;;4998953;28;20030;-88
2022/07/01 12:09:36;;;;;;;0.70;0.20;;;17.70;99.90;;;;;;5012110;28;20030;-87
2022/07/01 12:12:05;;;;;;;0.52;0.30;;;17.90;99.90;;;;;;5012524;28;20026;-87
2022/07/01 12:14:53;;;;;;;0.65;0.28;;;18.30;99.90;;;;;;5011627;28;20034;-87
2022/07/01 12:17:29;;;;;;;0.77;0.20;;;18.60;99.90;;;;;;4992617;28;20030;-87
2022/07/01 12:19:55;;;;;;;0.40;0.20;;;18.50;99.90;;;;;;5011488;28;20018;-87
2022/07/01 12:22:40;;;;;;;1.60;0.20;;;18.50;99.90;;;;;;5014027;28;20548;-87
2022/07/01 12:25:13;;;;;;;1.25;0.40;;;18.70;99.90;;;;;;5018561;28;20053;-87
2022/07/01 12:27:43;;;;;;;0.75;0.30;;;19.00;99.90;;;;;;4995839;28;20104;-87
2022/07/01 12:30:32;;;;;;;1.25;0.40;;;19.40;99.90;;;;;;4997002;28;20105;-87
2022/07/01 12:33:10;;;;;;;1.73;0.47;;;19.60;99.90;;;;;;5009318;28;20030;-87
2022/07/01 12:35:50;;;;;;;2.83;0.43;;;20.60;99.90;;;;;;4992871;28;20125;-87
2022/07/01 12:38:20;;;;;;;0.60;0.30;;;20.60;99.90;;;;;;5009028;28;20124;-87
2022/07/01 12:40:57;;;;;;;1.25;0.30;;;20.70;99.90;;;;;;5000513;28;20079;-87
2022/07/01 12:43:32;;;;;;;0.65;0.20;;;20.50;99.90;;;;;;4994073;28;20099;-88
2022/07/01 12:45:59;;;;;;;0.88;0.30;;;20.20;99.90;;;;;;4990815;28;20080;-88
2022/07/01 12:48:26;;;;;;;0.57;0.30;;;19.70;99.90;;;;;;4990176;28;20032;-89
2022/07/01 12:50:53;;;;;;;1.40;0.30;;;19.30;99.90;;;;;;4990266;28;20033;-88
2022/07/01 12:53:20;;;;;;;0.68;0.30;;;19.00;99.90;;;;;;5010269;28;20022;-88
2022/07/01 12:55:51;;;;;;;0.70;0.30;;;18.70;99.90;;;;;;4986349;28;20034;-88
2022/07/01 12:58:20;;;;;;;0.65;0.32;;;18.60;99.90;;;;;;5004196;28;20030;-88
2022/07/01 13:00:47;;;;;;;0.60;0.32;;;18.50;99.90;;;;;;5018000;28;20025;-88
2022/07/01 13:03:14;;;;;;;1.92;0.30;;;18.70;99.90;;;;;;4998076;28;20096;-88
2022/07/01 13:05:40;;;;;;;1.38;0.30;;;18.50;99.90;;;;;;4992593;28;20049;-88
2022/07/01 13:08:07;;;;;;;0.88;0.30;;;18.60;99.90;;;;;;5013606;28;20022;-88
2022/07/01 13:10:33;;;;;;;1.08;0.47;;;18.40;99.90;;;;;;4987825;28;20069;-88